Time;durP1;ratioP1;P1;durP2;ratioP2;P2;SDS_P1;SDS_P2;PMS_P1;PMS_P2;Temp;Humidity;BMP_temperature;BMP_pressure;BME280_temperature;BME280_humidity;BME280_pressure;Samples;Min_cycle;Max_cycle;Signal;HPM_P1;HPM_P2
2023/09/08 00:00:51;;;;;;;6.83;6.30;;;21.70;50.40;;;;;;21469;6553;67045;-74
2023/09/08 00:03:26;;;;;;;7.10;6.50;;;21.30;50.80;;;;;;21491;6553;65130;-74
2023/09/08 00:06:02;;;;;;;7.80;7.30;;;21.10;51.40;;;;;;21304;6540;299936;-75
2023/09/08 00:08:37;;;;;;;7.20;6.80;;;21.30;51.40;;;;;;21548;6538;69492;-74
2023/09/08 00:11:13;;;;;;;7.60;7.10;;;21.20;51.30;;;;;;21333;6535;299500;-74
2023/09/08 00:13:50;;;;;;;7.60;7.10;;;21.40;51.60;;;;;;21318;6546;303048;-75
2023/09/08 00:16:25;;;;;;;7.67;7.17;;;21.70;51.00;;;;;;21504;6546;66325;-75
2023/09/08 00:19:01;;;;;;;7.07;6.57;;;21.50;51.00;;;;;;21545;6538;65903;-74
2023/09/08 00:21:36;;;;;;;8.20;7.60;;;21.10;51.40;;;;;;21325;6538;299557;-75
2023/09/08 00:24:12;;;;;;;7.93;7.35;;;21.30;51.90;;;;;;21302;6545;328971;-75
2023/09/08 00:26:48;;;;;;;7.33;6.83;;;21.60;51.30;;;;;;21442;6548;65885;-74
2023/09/08 00:29:23;;;;;;;7.73;7.27;;;21.30;51.30;;;;;;21233;6549;299829;-74
2023/09/08 00:31:59;;;;;;;7.40;6.90;;;21.40;51.50;;;;;;21471;6549;66934;-75
2023/09/08 00:34:34;;;;;;;7.97;7.47;;;21.20;51.50;;;;;;21277;6549;288646;-74
2023/09/08 00:37:10;;;;;;;8.00;7.30;;;21.30;51.70;;;;;;21155;6548;306562;-74
2023/09/08 00:39:45;;;;;;;6.43;6.13;;;21.60;51.20;;;;;;21511;6545;66864;-74
2023/09/08 00:42:21;;;;;;;8.13;7.47;;;21.30;51.40;;;;;;21308;6545;270512;-74
2023/09/08 00:44:56;;;;;;;8.35;7.75;;;21.40;51.70;;;;;;21330;6538;328535;-74
2023/09/08 00:47:32;;;;;;;8.07;7.23;;;21.60;51.20;;;;;;21154;6553;304315;-74
2023/09/08 00:50:08;;;;;;;7.95;7.35;;;21.80;50.80;;;;;;21326;6538;303191;-74
2023/09/08 00:52:43;;;;;;;7.77;7.27;;;21.90;50.50;;;;;;21330;6538;301014;-74
2023/09/08 00:55:20;;;;;;;7.00;6.53;;;22.00;50.40;;;;;;21546;6546;70126;-74
2023/09/08 00:57:56;;;;;;;7.37;6.93;;;21.70;50.70;;;;;;21374;6538;66375;-75
2023/09/08 01:00:32;;;;;;;7.40;6.90;;;21.20;51.20;;;;;;21551;6538;66882;-74
2023/09/08 01:03:07;;;;;;;7.50;6.90;;;20.80;51.80;;;;;;21495;6553;65282;-75
2023/09/08 01:05:42;;;;;;;6.90;6.37;;;20.50;52.30;;;;;;21547;6553;65094;-74
2023/09/08 01:08:21;;;;;;;6.83;6.43;;;20.30;52.70;;;;;;21342;6553;65879;-74
2023/09/08 01:10:54;;;;;;;7.13;6.53;;;20.20;53.00;;;;;;21532;6538;68919;-74
2023/09/08 01:13:29;;;;;;;7.60;6.90;;;20.00;53.10;;;;;;21538;6541;66460;-74
2023/09/08 01:16:05;;;;;;;7.53;7.10;;;20.00;53.30;;;;;;21273;6553;270675;-74
2023/09/08 01:18:40;;;;;;;6.93;6.57;;;20.30;53.20;;;;;;21526;6538;67332;-74
2023/09/08 01:21:22;;;;;;;8.30;7.60;;;20.30;52.80;;;;;;21329;6538;274228;-75
2023/09/08 01:24:01;;;;;;;7.70;7.20;;;20.60;52.50;;;;;;21316;6538;272103;-74
2023/09/08 01:26:37;;;;;;;7.50;7.00;;;20.90;52.00;;;;;;21261;6594;283459;-75
2023/09/08 01:29:12;;;;;;;7.37;6.83;;;21.20;51.30;;;;;;21326;6538;303569;-74
2023/09/08 01:31:48;;;;;;;6.70;6.30;;;21.40;50.70;;;;;;21558;6528;65352;-74
2023/09/08 01:34:23;;;;;;;6.97;6.47;;;21.10;50.90;;;;;;21334;6538;270925;-74
2023/09/08 01:37:02;;;;;;;6.90;6.40;;;21.20;51.10;;;;;;21365;6551;66353;-74
2023/09/08 01:39:35;;;;;;;7.53;6.73;;;20.90;51.20;;;;;;21577;6531;65628;-74
2023/09/08 01:42:10;;;;;;;7.60;6.90;;;20.50;51.70;;;;;;21278;6557;271457;-74
2023/09/08 01:44:46;;;;;;;7.53;7.07;;;20.60;51.90;;;;;;21299;6546;299934;-74
2023/09/08 01:47:21;;;;;;;7.17;6.77;;;20.90;51.40;;;;;;21201;6546;275045;-75
2023/09/08 01:49:57;;;;;;;7.32;6.82;;;21.10;50.90;;;;;;21285;6545;319832;-74
2023/09/08 01:52:32;;;;;;;7.30;6.80;;;21.30;50.70;;;;;;21261;6560;298910;-74
2023/09/08 01:55:11;;;;;;;6.67;6.27;;;21.40;50.50;;;;;;21458;6564;66135;-74
2023/09/08 01:57:49;;;;;;;6.93;6.43;;;21.10;50.70;;;;;;21358;6554;69675;-74
2023/09/08 02:00:19;;;;;;;9.23;6.53;;;20.60;51.40;;;;;;21484;6557;65051;-74
2023/09/08 02:02:55;;;;;;;6.63;6.10;;;20.30;52.60;;;;;;21521;6546;66521;-74
2023/09/08 02:05:30;;;;;;;7.03;6.53;;;20.00;52.40;;;;;;21291;6549;293538;-74
2023/09/08 02:08:06;;;;;;;6.47;5.97;;;20.30;52.10;;;;;;21357;6542;66313;-74
2023/09/08 02:10:41;;;;;;;7.10;6.60;;;20.30;52.10;;;;;;21271;6553;300699;-75
2023/09/08 02:13:17;;;;;;;6.73;6.33;;;20.40;52.10;;;;;;21529;6543;65941;-74
2023/09/08 02:15:52;;;;;;;6.67;6.27;;;20.30;52.00;;;;;;21546;6553;67904;-74
2023/09/08 02:18:28;;;;;;;6.97;6.47;;;20.00;52.30;;;;;;21345;6609;72715;-75
2023/09/08 02:21:05;;;;;;;6.17;5.70;;;19.80;52.80;;;;;;21546;6538;65410;-74
2023/09/08 02:23:40;;;;;;;7.00;6.00;;;19.60;52.90;;;;;;21542;6538;65838;-74
2023/09/08 02:26:16;;;;;;;6.30;5.90;;;19.50;53.30;;;;;;21450;6548;65079;-74
2023/09/08 02:28:52;;;;;;;7.03;6.53;;;19.30;53.40;;;;;;21300;6548;299761;-75
2023/09/08 02:31:27;;;;;;;7.50;7.00;;;19.70;52.90;;;;;;21267;6549;302301;-74
2023/09/08 02:34:03;;;;;;;15.07;13.73;;;20.10;52.20;;;;;;21259;6549;297239;-75
2023/09/08 02:36:38;;;;;;;20.40;18.30;;;20.40;52.10;;;;;;21463;6549;67128;-74
2023/09/08 02:39:14;;;;;;;24.67;22.30;;;20.30;52.10;;;;;;21302;6548;270218;-74
2023/09/08 02:41:49;;;;;;;17.53;15.93;;;20.30;51.70;;;;;;21491;6546;65484;-74
2023/09/08 02:44:26;;;;;;;18.23;16.63;;;20.20;52.10;;;;;;21309;6543;270304;-75
2023/09/08 02:47:00;;;;;;;10.85;10.05;;;20.30;51.90;;;;;;21192;6553;331933;-74
2023/09/08 02:49:36;;;;;;;8.93;8.33;;;20.60;51.60;;;;;;21514;6546;75513;-75
2023/09/08 02:52:12;;;;;;;10.30;7.70;;;20.40;51.60;;;;;;21496;6552;65591;-74
2023/09/08 02:54:49;;;;;;;6.70;6.20;;;20.00;52.10;;;;;;21538;6554;65898;-74
2023/09/08 02:57:24;;;;;;;8.07;7.45;;;19.70;52.50;;;;;;21255;6538;333566;-75
2023/09/08 03:00:00;;;;;;;7.23;6.80;;;19.80;52.30;;;;;;21115;6546;303826;-74
2023/09/08 03:02:35;;;;;;;7.10;6.60;;;20.10;51.80;;;;;;21522;6531;65650;-74
2023/09/08 03:05:11;;;;;;;7.68;7.18;;;20.00;52.10;;;;;;21312;6553;274314;-75
2023/09/08 03:07:50;;;;;;;7.43;7.00;;;20.10;51.70;;;;;;21116;6555;306318;-74
2023/09/08 03:10:26;;;;;;;7.00;6.60;;;20.30;51.30;;;;;;21335;6536;299422;-74
2023/09/08 03:13:01;;;;;;;7.10;6.60;;;20.50;51.10;;;;;;21308;6536;305937;-75
2023/09/08 03:15:36;;;;;;;7.10;6.60;;;20.60;50.80;;;;;;21333;6536;270449;-75
2023/09/08 03:18:12;;;;;;;7.35;6.75;;;20.60;50.70;;;;;;21121;6545;301757;-75
2023/09/08 03:20:50;;;;;;;7.00;6.50;;;20.70;50.80;;;;;;21308;6538;276325;-75
2023/09/08 03:23:26;;;;;;;7.50;7.10;;;20.70;50.70;;;;;;21305;6543;304292;-74
2023/09/08 03:26:01;;;;;;;6.40;5.90;;;20.80;51.40;;;;;;21486;6553;65457;-74
2023/09/08 03:28:38;;;;;;;6.80;6.40;;;20.50;51.70;;;;;;21517;6532;66280;-74
2023/09/08 03:31:13;;;;;;;6.60;6.13;;;20.00;52.40;;;;;;21571;6532;68493;-74
2023/09/08 03:33:48;;;;;;;7.40;7.00;;;19.70;53.10;;;;;;21294;6532;303631;-75
2023/09/08 03:36:24;;;;;;;7.10;6.60;;;19.80;53.40;;;;;;21269;6532;301979;-77
2023/09/08 03:38:59;;;;;;;7.57;7.10;;;20.10;53.00;;;;;;21376;6523;298943;-74
2023/09/08 03:41:35;;;;;;;7.10;6.60;;;20.40;51.80;;;;;;21545;6538;65736;-74
2023/09/08 03:44:10;;;;;;;7.37;6.87;;;20.10;52.10;;;;;;21312;6538;299072;-75
2023/09/08 03:46:46;;;;;;;6.37;6.03;;;20.10;53.10;;;;;;21442;6553;68384;-74
2023/09/08 03:49:21;;;;;;;7.47;6.97;;;20.00;53.10;;;;;;21345;6545;299766;-74
2023/09/08 03:51:58;;;;;;;7.12;6.72;;;20.00;52.40;;;;;;21320;6538;335557;-74
2023/09/08 03:54:33;;;;;;;6.97;6.47;;;20.30;52.50;;;;;;21460;6553;67001;-75
2023/09/08 03:57:08;;;;;;;7.03;6.33;;;20.10;52.40;;;;;;21465;6531;70690;-74
2023/09/08 03:59:44;;;;;;;7.27;6.77;;;19.70;52.70;;;;;;21335;6535;271314;-77
2023/09/08 04:02:19;;;;;;;6.70;6.10;;;19.70;52.20;;;;;;21547;6546;69383;-76
2023/09/08 04:04:55;;;;;;;6.30;5.90;;;19.50;52.40;;;;;;21430;6552;66519;-76
2023/09/08 04:07:31;;;;;;;7.65;7.10;;;19.20;53.10;;;;;;21099;6523;272396;-76
2023/09/08 04:10:06;;;;;;;7.10;6.60;;;19.40;53.60;;;;;;21557;6523;69221;-76
2023/09/08 04:12:42;;;;;;;7.87;7.35;;;19.30;53.60;;;;;;21320;6523;331166;-74
2023/09/08 04:15:18;;;;;;;7.33;6.83;;;19.50;53.60;;;;;;21506;6538;66398;-75
2023/09/08 04:17:53;;;;;;;6.60;6.30;;;19.50;53.60;;;;;;21398;6523;72448;-80
2023/09/08 04:20:29;;;;;;;8.00;7.50;;;19.20;53.80;;;;;;21294;6538;297606;-75
2023/09/08 04:23:04;;;;;;;8.93;8.35;;;19.40;53.70;;;;;;21273;6553;324809;-75
2023/09/08 04:25:40;;;;;;;8.27;7.23;;;19.70;53.30;;;;;;21539;6538;65442;-77
2023/09/08 04:28:15;;;;;;;8.23;7.63;;;19.50;53.40;;;;;;21081;6553;300986;-74
2023/09/08 04:30:51;;;;;;;8.48;7.87;;;19.70;53.80;;;;;;21279;6553;300005;-75
2023/09/08 04:33:28;;;;;;;8.50;7.90;;;19.90;53.20;;;;;;21325;6538;300319;-74
2023/09/08 04:36:03;;;;;;;8.48;7.70;;;20.10;52.30;;;;;;21126;6555;331632;-75
2023/09/08 04:38:38;;;;;;;8.47;7.77;;;20.30;52.10;;;;;;21316;6555;67381;-70
2023/09/08 04:41:14;;;;;;;8.30;7.70;;;20.00;52.50;;;;;;21193;6540;330467;-70
2023/09/08 04:43:50;;;;;;;9.47;8.70;;;20.00;52.50;;;;;;21145;6543;277384;-71
2023/09/08 04:46:25;;;;;;;7.80;7.30;;;20.20;52.00;;;;;;21258;6553;69252;-71
2023/09/08 04:49:01;;;;;;;7.67;7.07;;;19.90;52.40;;;;;;21366;6540;66428;-70
2023/09/08 04:51:36;;;;;;;7.80;7.30;;;19.60;53.20;;;;;;21448;6540;66341;-72
2023/09/08 04:54:12;;;;;;;8.03;7.53;;;19.30;53.70;;;;;;21197;6542;307707;-74
2023/09/08 04:56:47;;;;;;;7.57;7.00;;;19.40;53.40;;;;;;21236;6544;88851;-71
2023/09/08 04:59:23;;;;;;;7.30;6.80;;;19.30;53.40;;;;;;21470;6540;71745;-71
2023/09/08 05:01:59;;;;;;;8.27;7.77;;;19.10;53.90;;;;;;21193;6540;271098;-72
2023/09/08 05:04:34;;;;;;;7.90;7.40;;;19.30;54.10;;;;;;21191;6531;270645;-72
2023/09/08 06:22:29;;;;;;;9.05;8.40;;;22.90;50.20;;;;;;21309;6505;300534;-68
2023/09/08 06:24:55;;;;;;;8.80;8.10;;;23.00;50.50;;;;;;21393;6603;67493;-70
2023/09/08 06:27:24;;;;;;;8.88;8.05;;;22.60;51.70;;;;;;21247;6596;66821;-72
2023/09/08 06:29:51;;;;;;;8.23;7.43;;;22.60;51.60;;;;;;21270;6646;66207;-68
2023/09/08 06:32:16;;;;;;;8.70;8.10;;;22.40;51.80;;;;;;21062;6646;271929;-69
2023/09/08 06:34:42;;;;;;;9.43;8.57;;;22.40;51.80;;;;;;21279;6646;70364;-68
2023/09/08 06:37:08;;;;;;;12.50;7.93;;;22.20;52.70;;;;;;21252;6646;68143;-68
2023/09/08 06:39:33;;;;;;;8.50;7.80;;;22.20;52.30;;;;;;21256;6646;67207;-69
2023/09/08 06:45:10;;;;;;;9.30;8.07;;;21.90;53.00;;;;;;21291;6647;68745;-70
2023/09/08 06:47:36;;;;;;;9.30;8.40;;;21.90;53.30;;;;;;21080;6647;278359;-70
2023/09/08 06:50:01;;;;;;;8.50;7.90;;;22.20;53.10;;;;;;21281;6647;66642;-69
2023/09/08 06:52:28;;;;;;;9.68;8.68;;;22.70;52.60;;;;;;21067;6647;272329;-72
2023/09/08 06:54:56;;;;;;;9.13;8.33;;;22.70;52.60;;;;;;21060;6647;299915;-76
2023/09/08 06:57:22;;;;;;;8.20;7.60;;;23.20;52.00;;;;;;21285;6647;66751;-77
2023/09/08 06:59:48;;;;;;;7.67;7.17;;;23.30;51.90;;;;;;21315;6647;65844;-76
2023/09/08 07:02:13;;;;;;;7.83;7.30;;;23.10;52.00;;;;;;21306;6647;70466;-75
2023/09/08 07:04:39;;;;;;;8.65;8.05;;;23.00;52.10;;;;;;21068;6647;289209;-74
2023/09/08 07:07:07;;;;;;;9.23;8.43;;;23.40;51.30;;;;;;21151;6647;70916;-70
2023/09/08 07:09:30;;;;;;;8.55;7.68;;;23.50;51.10;;;;;;21220;6647;71221;-70
2023/09/08 07:11:56;;;;;;;8.70;8.10;;;23.50;51.30;;;;;;20964;6647;302514;-71
2023/09/08 07:14:21;;;;;;;8.48;7.97;;;23.70;50.90;;;;;;21003;6647;334007;-70
2023/09/08 07:16:47;;;;;;;7.93;7.33;;;24.20;50.40;;;;;;21235;6647;72230;-71
2023/09/08 07:19:14;;;;;;;7.07;6.57;;;24.20;51.40;;;;;;21225;6647;69420;-70
2023/09/08 07:21:39;;;;;;;8.50;7.90;;;24.20;50.80;;;;;;21251;6647;65651;-71
2023/09/08 07:24:05;;;;;;;8.17;7.63;;;24.10;50.80;;;;;;21014;6647;300453;-71
2023/09/08 07:26:31;;;;;;;8.83;8.13;;;24.50;50.20;;;;;;21033;6647;300855;-72
2023/09/08 07:28:56;;;;;;;7.90;7.43;;;25.00;49.30;;;;;;21262;6647;66200;-71
2023/09/08 07:31:22;;;;;;;8.80;8.10;;;25.10;49.50;;;;;;21042;6647;277377;-71
2023/09/08 07:33:48;;;;;;;8.50;7.87;;;25.40;48.80;;;;;;21259;6645;65699;-73
2023/09/08 07:36:14;;;;;;;8.03;7.40;;;25.40;48.80;;;;;;21254;6646;69518;-72
2023/09/08 07:38:39;;;;;;;8.00;7.50;;;25.40;49.10;;;;;;21035;6646;330801;-71
2023/09/08 07:41:05;;;;;;;8.20;7.40;;;25.60;48.70;;;;;;21271;6646;65324;-72
2023/09/08 07:43:31;;;;;;;8.18;7.68;;;25.80;48.80;;;;;;21042;6646;286726;-72
2023/09/08 07:45:56;;;;;;;7.60;6.90;;;26.10;47.90;;;;;;21256;6646;65372;-69
2023/09/08 07:48:22;;;;;;;8.65;7.80;;;26.60;46.70;;;;;;21043;6646;306937;-69
2023/09/08 07:50:48;;;;;;;7.70;7.30;;;26.50;46.60;;;;;;21253;6646;69930;-72
2023/09/08 07:53:14;;;;;;;7.80;7.10;;;26.60;46.90;;;;;;21262;6647;65694;-72
2023/09/08 07:55:39;;;;;;;7.77;7.17;;;26.60;47.20;;;;;;21264;6647;66081;-69
2023/09/08 07:58:05;;;;;;;8.38;7.80;;;26.50;47.40;;;;;;21040;6647;303834;-69
2023/09/08 08:00:30;;;;;;;8.60;8.00;;;26.80;45.90;;;;;;21057;6647;277905;-69
2023/09/08 08:02:56;;;;;;;7.10;6.60;;;27.20;45.00;;;;;;21271;6647;65693;-69
2023/09/08 08:05:22;;;;;;;6.13;5.73;;;27.20;45.40;;;;;;21249;6647;67031;-69
2023/09/08 08:07:48;;;;;;;7.40;6.90;;;27.10;45.80;;;;;;20971;6647;303377;-70
2023/09/08 08:10:14;;;;;;;7.27;6.87;;;27.40;45.10;;;;;;21259;6647;66698;-70
2023/09/08 08:12:40;;;;;;;7.62;6.85;;;27.40;45.00;;;;;;21016;6647;300923;-69
2023/09/08 08:15:05;;;;;;;7.40;6.80;;;27.70;44.00;;;;;;21061;6647;284681;-70
2023/09/08 08:17:31;;;;;;;7.20;6.70;;;28.10;44.00;;;;;;21058;6647;301274;-70
2023/09/08 08:19:58;;;;;;;6.70;6.20;;;28.50;42.80;;;;;;21266;6647;65561;-70
2023/09/08 08:22:22;;;;;;;7.30;6.85;;;28.50;43.30;;;;;;21045;6647;279592;-70
2023/09/08 08:24:48;;;;;;;6.70;6.23;;;28.60;42.60;;;;;;21270;6647;65215;-70
2023/09/08 08:27:14;;;;;;;6.70;6.30;;;28.80;42.10;;;;;;21056;6647;272807;-70
2023/09/08 08:29:40;;;;;;;6.33;5.83;;;28.80;42.10;;;;;;21066;6647;273546;-70
2023/09/08 08:32:05;;;;;;;6.47;6.07;;;29.30;41.90;;;;;;21045;6647;276661;-70
2023/09/08 08:34:32;;;;;;;6.83;6.23;;;29.70;40.90;;;;;;21257;6647;65722;-69
2023/09/08 08:36:57;;;;;;;6.50;6.20;;;29.70;40.90;;;;;;21029;6647;308934;-70
2023/09/08 08:39:23;;;;;;;6.37;5.77;;;29.80;39.70;;;;;;21246;6647;67490;-69
2023/09/08 08:41:48;;;;;;;6.30;5.90;;;29.80;40.40;;;;;;21054;6647;301182;-73
2023/09/08 08:44:14;;;;;;;6.60;6.10;;;30.00;39.60;;;;;;21048;6645;301792;-70
2023/09/08 08:46:41;;;;;;;6.43;6.00;;;30.30;39.10;;;;;;21207;6646;68720;-71
2023/09/08 08:49:06;;;;;;;6.43;6.03;;;30.40;39.30;;;;;;21027;6646;301395;-70
2023/09/08 08:51:32;;;;;;;6.40;6.00;;;30.50;38.90;;;;;;21040;6646;276628;-72
2023/09/08 08:53:57;;;;;;;5.60;5.20;;;30.90;38.10;;;;;;21249;6646;65494;-72
2023/09/08 08:56:23;;;;;;;6.30;5.90;;;30.90;38.60;;;;;;21051;6646;300495;-71
2023/09/08 08:58:49;;;;;;;5.27;4.97;;;31.00;37.80;;;;;;21277;6646;65858;-72
2023/09/08 09:01:15;;;;;;;5.73;5.33;;;30.90;38.40;;;;;;21238;6646;69535;-72
2023/09/08 09:03:40;;;;;;;7.30;5.43;;;30.70;38.80;;;;;;21260;6647;65315;-71
2023/09/08 09:06:15;;;;;;;5.87;5.45;;;30.60;39.40;;;;;;21051;6647;312215;-72
2023/09/08 09:08:44;;;;;;;6.15;5.82;;;30.80;38.10;;;;;;21052;6647;307358;-72
2023/09/08 09:11:10;;;;;;;6.40;5.80;;;31.60;37.80;;;;;;21052;6647;302961;-72
2023/09/08 09:13:36;;;;;;;5.83;5.53;;;31.60;37.80;;;;;;21266;6647;65327;-71
2023/09/08 09:16:03;;;;;;;6.47;5.80;;;31.60;37.80;;;;;;21034;6647;301784;-71
2023/09/08 09:18:29;;;;;;;5.32;4.93;;;31.70;37.80;;;;;;21258;6647;66575;-72
2023/09/08 09:20:52;;;;;;;6.00;5.60;;;31.70;38.10;;;;;;21251;6647;66183;-71
2023/09/08 09:23:18;;;;;;;6.15;5.75;;;31.60;38.00;;;;;;21054;6647;272413;-72
2023/09/08 09:25:44;;;;;;;5.90;5.60;;;32.00;37.00;;;;;;21030;6647;275395;-71
2023/09/08 09:28:13;;;;;;;5.80;5.40;;;32.00;37.00;;;;;;21277;6647;73194;-72
2023/09/08 09:30:48;;;;;;;6.00;5.60;;;32.00;37.10;;;;;;21074;6647;302452;-72
2023/09/08 09:33:14;;;;;;;5.93;5.53;;;32.00;36.80;;;;;;21295;6647;67146;-73
2023/09/08 09:35:46;;;;;;;6.53;6.07;;;32.00;37.00;;;;;;21251;6647;65653;-73
2023/09/08 09:38:11;;;;;;;6.70;6.00;;;31.80;37.00;;;;;;21022;6647;292558;-72
2023/09/08 09:40:37;;;;;;;6.20;5.60;;;31.90;36.20;;;;;;21098;6647;330047;-72
2023/09/08 09:43:04;;;;;;;6.10;4.97;;;32.00;36.40;;;;;;21320;6647;65314;-72
2023/09/08 09:45:29;;;;;;;5.95;5.55;;;32.00;36.40;;;;;;21076;6647;278754;-73
2023/09/08 09:47:55;;;;;;;6.10;5.60;;;32.10;36.60;;;;;;21290;6647;66121;-73
2023/09/08 09:50:31;;;;;;;6.13;5.57;;;32.00;36.60;;;;;;21266;6647;66790;-73
2023/09/08 09:52:57;;;;;;;5.70;5.40;;;32.00;37.00;;;;;;21027;6647;283040;-73
2023/09/08 09:55:23;;;;;;;6.07;5.57;;;32.40;36.80;;;;;;21022;6645;303130;-72
2023/09/08 09:57:49;;;;;;;6.53;5.93;;;32.40;36.70;;;;;;21056;6646;303494;-71
2023/09/08 10:00:14;;;;;;;6.60;6.20;;;32.70;36.30;;;;;;21009;6646;318880;-70
2023/09/08 10:02:40;;;;;;;6.10;5.57;;;32.90;36.00;;;;;;21142;6646;71696;-70
2023/09/08 10:05:12;;;;;;;6.20;5.80;;;32.90;36.00;;;;;;20961;6646;296751;-72
2023/09/08 10:07:37;;;;;;;6.17;5.77;;;33.00;36.60;;;;;;20966;6646;302789;-72
2023/09/08 10:10:05;;;;;;;6.40;5.90;;;33.20;36.90;;;;;;20970;6646;276678;-69
2023/09/08 10:12:31;;;;;;;6.27;5.77;;;33.40;36.10;;;;;;20958;6646;300493;-72
2023/09/08 10:14:54;;;;;;;6.05;5.65;;;33.60;35.60;;;;;;20967;6646;310275;-75
2023/09/08 10:17:21;;;;;;;6.07;5.67;;;33.80;36.00;;;;;;20955;6647;314236;-72
2023/09/08 10:19:51;;;;;;;5.57;5.20;;;33.80;35.80;;;;;;21184;6647;65699;-72
2023/09/08 10:22:13;;;;;;;5.77;5.40;;;33.70;36.00;;;;;;21249;6647;65657;-70
2023/09/08 10:24:39;;;;;;;6.17;5.67;;;33.40;36.10;;;;;;21238;6647;65718;-72
2023/09/08 10:27:04;;;;;;;6.50;5.90;;;33.10;36.40;;;;;;21023;6647;271918;-69
2023/09/08 10:29:31;;;;;;;6.50;6.00;;;33.40;36.00;;;;;;21023;6647;272781;-70
2023/09/08 10:31:56;;;;;;;6.03;5.53;;;33.40;36.00;;;;;;21034;6647;279912;-71
2023/09/08 10:34:22;;;;;;;6.00;5.70;;;33.60;35.90;;;;;;21019;6647;308014;-70
2023/09/08 10:36:47;;;;;;;6.50;5.73;;;33.70;35.80;;;;;;21237;6647;70872;-71
2023/09/08 10:39:38;;;;;;;6.30;5.80;;;33.70;35.80;;;;;;21024;6647;274425;-72
2023/09/08 10:42:21;;;;;;;6.47;5.87;;;33.70;35.50;;;;;;21229;6647;67441;-70
2023/09/08 10:44:45;;;;;;;6.85;6.35;;;33.50;36.00;;;;;;21011;6647;301085;-70
2023/09/08 10:47:11;;;;;;;6.50;5.87;;;33.60;35.80;;;;;;21248;6647;65286;-70
2023/09/08 10:49:36;;;;;;;5.72;5.43;;;33.50;36.00;;;;;;21271;6647;66082;-72
2023/09/08 10:52:05;;;;;;;7.43;6.82;;;33.30;36.40;;;;;;21049;6647;286814;-72
2023/09/08 10:54:40;;;;;;;8.43;5.70;;;33.40;36.10;;;;;;21248;6647;65743;-71
2023/09/08 10:57:06;;;;;;;5.90;5.60;;;33.40;36.50;;;;;;20872;6647;116926;-73
2023/09/08 10:59:35;;;;;;;6.30;5.80;;;33.20;36.70;;;;;;20560;6867;117196;-71
2023/09/08 11:02:00;;;;;;;6.45;5.78;;;33.10;37.10;;;;;;20323;6867;307420;-72
2023/09/08 11:04:26;;;;;;;5.95;5.60;;;33.20;36.30;;;;;;20336;6867;308427;-70
2023/09/08 11:06:51;;;;;;;5.80;5.50;;;33.50;35.80;;;;;;20564;6865;118212;-72
2023/09/08 11:09:17;;;;;;;6.20;5.80;;;33.50;36.30;;;;;;20571;6866;120454;-72
2023/09/08 11:11:42;;;;;;;6.33;5.83;;;33.40;36.40;;;;;;20572;6866;120667;-72
2023/09/08 11:14:08;;;;;;;6.20;5.90;;;33.20;36.40;;;;;;20539;6867;120924;-72
2023/09/08 11:16:35;;;;;;;6.27;5.90;;;33.00;36.60;;;;;;20374;6867;278920;-72
2023/09/08 11:19:01;;;;;;;6.53;6.10;;;33.10;36.60;;;;;;20362;6867;315296;-71
2023/09/08 11:21:25;;;;;;;5.60;5.30;;;33.30;35.90;;;;;;20576;6867;66429;-71
2023/09/08 11:23:50;;;;;;;6.85;6.30;;;33.30;35.80;;;;;;20357;6867;278513;-70
2023/09/08 11:26:16;;;;;;;6.35;5.95;;;33.40;36.10;;;;;;20332;6867;280222;-70
2023/09/08 11:28:42;;;;;;;6.43;6.00;;;33.30;36.60;;;;;;20551;6867;117402;-71
2023/09/08 11:31:08;;;;;;;6.57;6.17;;;33.30;36.50;;;;;;20540;6867;118117;-72
2023/09/08 11:33:33;;;;;;;6.43;5.95;;;33.10;36.70;;;;;;20347;6867;308919;-72
2023/09/08 11:35:59;;;;;;;6.60;5.95;;;33.10;36.40;;;;;;20329;6867;285148;-70
2023/09/08 11:38:26;;;;;;;6.50;6.00;;;33.50;36.90;;;;;;20360;6867;337166;-71
2023/09/08 11:40:51;;;;;;;6.07;5.57;;;33.60;36.90;;;;;;20543;6867;118762;-72
2023/09/08 11:43:16;;;;;;;6.22;5.72;;;33.50;36.60;;;;;;20345;6867;308838;-72
2023/09/08 11:45:42;;;;;;;6.07;5.68;;;33.50;36.10;;;;;;20347;6867;281509;-72
2023/09/08 11:48:08;;;;;;;6.53;5.93;;;33.60;36.30;;;;;;20513;6867;118543;-72
2023/09/08 11:50:34;;;;;;;6.80;6.30;;;33.60;36.20;;;;;;20332;6867;284627;-72
2023/09/08 11:53:00;;;;;;;6.50;6.10;;;33.60;35.40;;;;;;20349;6867;318595;-70
2023/09/08 11:55:25;;;;;;;5.67;5.37;;;33.60;35.80;;;;;;20542;6867;122739;-72
2023/09/08 11:57:57;;;;;;;5.80;5.50;;;33.50;35.80;;;;;;20320;6867;308830;-72
2023/09/08 12:00:21;;;;;;;5.43;5.13;;;33.40;35.30;;;;;;20565;6867;117395;-72
2023/09/08 12:02:45;;;;;;;5.60;5.30;;;33.30;35.30;;;;;;20576;6867;118398;-72
2023/09/08 12:05:11;;;;;;;6.37;6.00;;;33.10;35.70;;;;;;20347;6867;309083;-70
2023/09/08 12:07:37;;;;;;;6.03;5.70;;;33.10;36.80;;;;;;20542;6867;117792;-72
2023/09/08 12:10:10;;;;;;;6.27;5.77;;;33.20;36.80;;;;;;20568;6867;117710;-72
2023/09/08 12:12:35;;;;;;;6.30;5.80;;;33.10;36.70;;;;;;20568;6867;117412;-71
2023/09/08 12:15:02;;;;;;;6.10;5.70;;;33.00;35.30;;;;;;20332;6867;284335;-72
2023/09/08 12:17:28;;;;;;;6.17;5.87;;;32.90;35.30;;;;;;20560;6867;117530;-71
2023/09/08 12:19:53;;;;;;;6.68;6.18;;;33.00;35.70;;;;;;20333;6865;299958;-70
2023/09/08 12:22:22;;;;;;;5.80;5.50;;;33.10;35.90;;;;;;20563;6866;117665;-70
2023/09/08 12:25:01;;;;;;;6.40;5.93;;;33.20;36.10;;;;;;20344;6867;343111;-72
2023/09/08 12:27:25;;;;;;;5.60;5.17;;;33.20;36.10;;;;;;20556;6867;118293;-72
2023/09/08 12:29:57;;;;;;;6.47;5.97;;;33.10;36.00;;;;;;20330;6867;345139;-72
2023/09/08 12:32:22;;;;;;;6.53;5.97;;;33.20;36.40;;;;;;20323;6867;308315;-72
2023/09/08 12:34:48;;;;;;;6.60;6.00;;;33.40;36.30;;;;;;20342;6867;278927;-70
2023/09/08 12:37:13;;;;;;;6.50;6.10;;;33.50;35.20;;;;;;20383;6867;306099;-73
2023/09/08 12:39:40;;;;;;;9.90;5.53;;;33.50;35.60;;;;;;20591;6867;121413;-70
2023/09/08 12:42:05;;;;;;;6.43;5.97;;;33.50;35.60;;;;;;20330;6867;414979;-72
2023/09/08 12:44:31;;;;;;;5.87;5.53;;;33.50;35.70;;;;;;20343;6867;308066;-73
2023/09/08 12:46:56;;;;;;;6.10;5.60;;;33.70;35.10;;;;;;20551;6867;117488;-70
2023/09/08 12:49:22;;;;;;;6.53;6.03;;;33.50;35.20;;;;;;20343;6867;314859;-73
2023/09/08 12:51:48;;;;;;;6.33;5.93;;;33.40;35.80;;;;;;20536;6867;117533;-72
2023/09/08 12:54:13;;;;;;;6.10;5.80;;;33.30;35.90;;;;;;20320;6867;281275;-70
2023/09/08 12:56:39;;;;;;;6.40;5.90;;;33.30;35.70;;;;;;20329;6867;319512;-71
2023/09/08 12:59:07;;;;;;;5.93;5.62;;;33.50;35.50;;;;;;20340;6867;314965;-72
2023/09/08 13:01:32;;;;;;;6.30;5.90;;;33.60;35.60;;;;;;20552;6867;117149;-71
2023/09/08 13:03:58;;;;;;;6.50;6.10;;;33.40;35.60;;;;;;20518;6867;120581;-71
2023/09/08 13:06:23;;;;;;;6.25;5.85;;;33.00;36.30;;;;;;20355;6867;316078;-70
2023/09/08 13:08:49;;;;;;;6.00;5.50;;;33.00;36.20;;;;;;20511;6867;118613;-71
2023/09/08 13:11:15;;;;;;;6.00;5.60;;;32.90;36.40;;;;;;20324;6867;316850;-72
2023/09/08 13:13:41;;;;;;;6.50;6.00;;;33.00;36.40;;;;;;20540;6867;117367;-71
2023/09/08 13:16:07;;;;;;;6.35;5.85;;;33.10;36.10;;;;;;20312;6867;317142;-71
2023/09/08 13:18:37;;;;;;;5.80;5.50;;;33.00;36.00;;;;;;20304;6867;284553;-74
2023/09/08 13:20:59;;;;;;;6.10;5.67;;;33.40;35.40;;;;;;20321;6867;279308;-73
2023/09/08 13:23:25;;;;;;;6.40;5.90;;;33.20;35.20;;;;;;20556;6867;117111;-71
2023/09/08 13:25:52;;;;;;;6.22;5.75;;;33.10;35.20;;;;;;20310;6867;337619;-72
2023/09/08 13:28:17;;;;;;;6.10;5.60;;;33.10;35.20;;;;;;20515;6867;117834;-72
2023/09/08 13:30:43;;;;;;;6.03;5.68;;;32.90;35.20;;;;;;20348;6865;309780;-73
2023/09/08 13:33:08;;;;;;;6.07;5.68;;;32.90;35.90;;;;;;20359;6866;278805;-70
2023/09/08 13:35:34;;;;;;;6.03;5.70;;;33.10;35.70;;;;;;20305;6866;337943;-70
2023/09/08 13:38:00;;;;;;;5.40;5.10;;;33.20;36.00;;;;;;20545;6867;117273;-70
2023/09/08 13:40:26;;;;;;;5.78;5.30;;;33.10;35.60;;;;;;20560;6867;117938;-68
2023/09/08 13:42:51;;;;;;;6.25;5.82;;;32.80;35.20;;;;;;20345;6867;278924;-70
2023/09/08 13:45:17;;;;;;;5.80;5.50;;;32.80;34.30;;;;;;20340;6867;318273;-70
2023/09/08 13:47:42;;;;;;;6.33;5.90;;;33.00;34.80;;;;;;20543;6867;117628;-70
2023/09/08 13:50:09;;;;;;;6.30;5.95;;;32.90;35.00;;;;;;20323;6867;279233;-70
2023/09/08 13:52:33;;;;;;;5.97;5.67;;;32.90;36.00;;;;;;20560;6867;119466;-68
2023/09/08 13:55:00;;;;;;;6.25;5.75;;;32.80;36.50;;;;;;20342;6867;278569;-70
2023/09/08 13:57:26;;;;;;;6.00;5.60;;;32.70;35.60;;;;;;20335;6867;346698;-70
2023/09/08 13:59:51;;;;;;;5.53;5.17;;;32.90;34.50;;;;;;20522;6867;120496;-69
2023/09/08 14:02:16;;;;;;;6.15;5.75;;;32.80;34.50;;;;;;20338;6867;308933;-70
2023/09/08 14:04:42;;;;;;;6.07;5.77;;;32.70;35.40;;;;;;20546;6867;117663;-69
2023/09/08 14:07:08;;;;;;;6.35;5.95;;;32.70;35.60;;;;;;20333;6867;317980;-69
2023/09/08 14:09:34;;;;;;;5.83;5.53;;;32.50;35.80;;;;;;20534;6867;119492;-70
2023/09/08 14:11:59;;;;;;;6.40;5.97;;;32.50;35.70;;;;;;20320;6867;297295;-70